sensor_id;sensor_type;location;lat;lon;timestamp;P1;durP1;ratioP1;P2;durP2;ratioP2
14984;SDS011;7588;62.368;25.902;2023-03-14T00:00:52;3.37;;;2.93;;
14984;SDS011;7588;62.368;25.902;2023-03-14T00:03:18;3.53;;;2.63;;
14984;SDS011;7588;62.368;25.902;2023-03-14T00:05:43;2.57;;;2.47;;
14984;SDS011;7588;62.368;25.902;2023-03-14T00:08:09;3.27;;;3.03;;
14984;SDS011;7588;62.368;25.902;2023-03-14T00:10:36;2.90;;;2.70;;
14984;SDS011;7588;62.368;25.902;2023-03-14T00:13:02;3.20;;;3.00;;
14984;SDS011;7588;62.368;25.902;2023-03-14T00:15:28;3.20;;;2.53;;
14984;SDS011;7588;62.368;25.902;2023-03-14T00:17:53;2.40;;;2.20;;
14984;SDS011;7588;62.368;25.902;2023-03-14T00:20:19;2.80;;;2.70;;
14984;SDS011;7588;62.368;25.902;2023-03-14T00:22:45;2.40;;;2.30;;
14984;SDS011;7588;62.368;25.902;2023-03-14T00:25:11;2.90;;;2.70;;
14984;SDS011;7588;62.368;25.902;2023-03-14T00:27:37;2.97;;;2.77;;
14984;SDS011;7588;62.368;25.902;2023-03-14T00:30:03;2.83;;;2.63;;
14984;SDS011;7588;62.368;25.902;2023-03-14T00:32:30;2.33;;;2.23;;
14984;SDS011;7588;62.368;25.902;2023-03-14T00:34:56;2.70;;;2.50;;
14984;SDS011;7588;62.368;25.902;2023-03-14T00:37:21;2.60;;;2.50;;
14984;SDS011;7588;62.368;25.902;2023-03-14T00:39:47;2.80;;;2.60;;
14984;SDS011;7588;62.368;25.902;2023-03-14T00:42:13;2.43;;;2.30;;
14984;SDS011;7588;62.368;25.902;2023-03-14T00:44:39;3.63;;;2.50;;
14984;SDS011;7588;62.368;25.902;2023-03-14T00:47:04;2.47;;;2.37;;
14984;SDS011;7588;62.368;25.902;2023-03-14T00:49:30;2.80;;;2.60;;
14984;SDS011;7588;62.368;25.902;2023-03-14T00:51:56;3.20;;;2.90;;
14984;SDS011;7588;62.368;25.902;2023-03-14T00:54:21;3.10;;;2.63;;
14984;SDS011;7588;62.368;25.902;2023-03-14T00:56:47;2.70;;;2.40;;
14984;SDS011;7588;62.368;25.902;2023-03-14T00:59:13;2.47;;;2.33;;
14984;SDS011;7588;62.368;25.902;2023-03-14T01:01:40;3.10;;;2.53;;
14984;SDS011;7588;62.368;25.902;2023-03-14T01:04:06;2.77;;;2.50;;
14984;SDS011;7588;62.368;25.902;2023-03-14T01:06:32;2.70;;;2.50;;
14984;SDS011;7588;62.368;25.902;2023-03-14T01:08:58;4.23;;;2.83;;
14984;SDS011;7588;62.368;25.902;2023-03-14T01:11:26;3.00;;;2.80;;
14984;SDS011;7588;62.368;25.902;2023-03-14T01:13:54;2.90;;;2.60;;
14984;SDS011;7588;62.368;25.902;2023-03-14T01:16:20;4.87;;;2.90;;
14984;SDS011;7588;62.368;25.902;2023-03-14T01:18:47;2.97;;;2.77;;
14984;SDS011;7588;62.368;25.902;2023-03-14T01:21:21;2.80;;;2.63;;
14984;SDS011;7588;62.368;25.902;2023-03-14T01:23:49;2.93;;;2.73;;
14984;SDS011;7588;62.368;25.902;2023-03-14T01:26:17;2.70;;;2.50;;
14984;SDS011;7588;62.368;25.902;2023-03-14T01:28:45;3.27;;;2.70;;
14984;SDS011;7588;62.368;25.902;2023-03-14T01:31:11;3.73;;;3.07;;
14984;SDS011;7588;62.368;25.902;2023-03-14T01:33:37;3.40;;;3.20;;
14984;SDS011;7588;62.368;25.902;2023-03-14T01:36:04;3.00;;;2.80;;
14984;SDS011;7588;62.368;25.902;2023-03-14T01:38:31;3.10;;;2.80;;
14984;SDS011;7588;62.368;25.902;2023-03-14T01:40:57;2.83;;;2.63;;
14984;SDS011;7588;62.368;25.902;2023-03-14T01:43:24;4.13;;;3.30;;
14984;SDS011;7588;62.368;25.902;2023-03-14T01:48:32;3.30;;;3.00;;
14984;SDS011;7588;62.368;25.902;2023-03-14T01:51:09;3.30;;;3.10;;
14984;SDS011;7588;62.368;25.902;2023-03-14T01:53:38;3.80;;;3.10;;
14984;SDS011;7588;62.368;25.902;2023-03-14T01:56:05;3.20;;;2.90;;
14984;SDS011;7588;62.368;25.902;2023-03-14T01:58:31;3.20;;;2.70;;
14984;SDS011;7588;62.368;25.902;2023-03-14T02:01:01;3.33;;;3.13;;
14984;SDS011;7588;62.368;25.902;2023-03-14T02:03:28;2.93;;;2.70;;
14984;SDS011;7588;62.368;25.902;2023-03-14T02:05:56;3.40;;;3.20;;
14984;SDS011;7588;62.368;25.902;2023-03-14T02:08:29;3.60;;;3.30;;
14984;SDS011;7588;62.368;25.902;2023-03-14T02:10:56;2.97;;;2.77;;
14984;SDS011;7588;62.368;25.902;2023-03-14T02:13:21;3.80;;;2.83;;
14984;SDS011;7588;62.368;25.902;2023-03-14T02:15:47;3.07;;;2.87;;
14984;SDS011;7588;62.368;25.902;2023-03-14T02:18:14;3.10;;;2.90;;
14984;SDS011;7588;62.368;25.902;2023-03-14T02:23:13;3.57;;;3.27;;
14984;SDS011;7588;62.368;25.902;2023-03-14T02:28:10;3.27;;;3.00;;
14984;SDS011;7588;62.368;25.902;2023-03-14T02:30:36;3.47;;;3.17;;
14984;SDS011;7588;62.368;25.902;2023-03-14T02:33:12;2.90;;;2.70;;
14984;SDS011;7588;62.368;25.902;2023-03-14T02:35:56;2.70;;;2.47;;
14984;SDS011;7588;62.368;25.902;2023-03-14T02:40:53;3.27;;;2.97;;
14984;SDS011;7588;62.368;25.902;2023-03-14T02:43:19;2.97;;;2.77;;
14984;SDS011;7588;62.368;25.902;2023-03-14T02:45:45;3.07;;;2.87;;
14984;SDS011;7588;62.368;25.902;2023-03-14T02:50:50;2.73;;;2.50;;
14984;SDS011;7588;62.368;25.902;2023-03-14T02:53:20;3.27;;;3.07;;
14984;SDS011;7588;62.368;25.902;2023-03-14T02:55:49;3.00;;;2.80;;
14984;SDS011;7588;62.368;25.902;2023-03-14T02:58:16;3.33;;;3.03;;
14984;SDS011;7588;62.368;25.902;2023-03-14T03:00:42;3.30;;;3.00;;
14984;SDS011;7588;62.368;25.902;2023-03-14T03:03:08;3.23;;;2.97;;
14984;SDS011;7588;62.368;25.902;2023-03-14T03:05:34;2.70;;;2.50;;
14984;SDS011;7588;62.368;25.902;2023-03-14T03:07:59;3.80;;;3.40;;
14984;SDS011;7588;62.368;25.902;2023-03-14T03:10:25;3.23;;;2.93;;
14984;SDS011;7588;62.368;25.902;2023-03-14T03:12:52;3.57;;;2.90;;
14984;SDS011;7588;62.368;25.902;2023-03-14T03:15:17;3.27;;;2.97;;
14984;SDS011;7588;62.368;25.902;2023-03-14T03:17:43;3.17;;;2.93;;
14984;SDS011;7588;62.368;25.902;2023-03-14T03:20:09;2.93;;;2.73;;
14984;SDS011;7588;62.368;25.902;2023-03-14T03:22:36;3.27;;;2.97;;
14984;SDS011;7588;62.368;25.902;2023-03-14T03:25:02;3.60;;;2.80;;
14984;SDS011;7588;62.368;25.902;2023-03-14T03:27:33;3.57;;;3.27;;
14984;SDS011;7588;62.368;25.902;2023-03-14T03:30:00;3.03;;;2.73;;
14984;SDS011;7588;62.368;25.902;2023-03-14T03:32:27;3.67;;;3.23;;
14984;SDS011;7588;62.368;25.902;2023-03-14T03:34:52;3.73;;;3.00;;
14984;SDS011;7588;62.368;25.902;2023-03-14T03:37:18;4.30;;;2.80;;
14984;SDS011;7588;62.368;25.902;2023-03-14T03:39:44;5.97;;;2.73;;
14984;SDS011;7588;62.368;25.902;2023-03-14T03:42:09;4.60;;;3.00;;
14984;SDS011;7588;62.368;25.902;2023-03-14T03:44:35;4.23;;;2.60;;
14984;SDS011;7588;62.368;25.902;2023-03-14T03:47:02;3.97;;;2.90;;
14984;SDS011;7588;62.368;25.902;2023-03-14T03:49:31;3.03;;;2.80;;
14984;SDS011;7588;62.368;25.902;2023-03-14T03:51:57;2.87;;;2.67;;
14984;SDS011;7588;62.368;25.902;2023-03-14T03:54:23;2.80;;;2.60;;
14984;SDS011;7588;62.368;25.902;2023-03-14T03:56:49;3.53;;;3.23;;
14984;SDS011;7588;62.368;25.902;2023-03-14T03:59:15;3.63;;;3.13;;
14984;SDS011;7588;62.368;25.902;2023-03-14T04:01:41;2.90;;;2.60;;
14984;SDS011;7588;62.368;25.902;2023-03-14T04:04:06;3.10;;;2.80;;
14984;SDS011;7588;62.368;25.902;2023-03-14T04:06:32;3.33;;;3.10;;
14984;SDS011;7588;62.368;25.902;2023-03-14T04:08:58;3.67;;;3.17;;
14984;SDS011;7588;62.368;25.902;2023-03-14T04:11:24;3.57;;;2.73;;
14984;SDS011;7588;62.368;25.902;2023-03-14T04:13:50;3.03;;;2.83;;
14984;SDS011;7588;62.368;25.902;2023-03-14T04:16:20;2.97;;;2.77;;
14984;SDS011;7588;62.368;25.902;2023-03-14T04:18:47;5.20;;;2.87;;
14984;SDS011;7588;62.368;25.902;2023-03-14T04:21:13;2.93;;;2.73;;
14984;SDS011;7588;62.368;25.902;2023-03-14T04:23:39;2.67;;;2.47;;
14984;SDS011;7588;62.368;25.902;2023-03-14T04:26:05;3.10;;;2.90;;
14984;SDS011;7588;62.368;25.902;2023-03-14T04:28:31;2.73;;;2.53;;
14984;SDS011;7588;62.368;25.902;2023-03-14T04:30:57;3.73;;;2.80;;
14984;SDS011;7588;62.368;25.902;2023-03-14T04:33:22;3.23;;;3.03;;
14984;SDS011;7588;62.368;25.902;2023-03-14T04:35:48;2.40;;;2.30;;
14984;SDS011;7588;62.368;25.902;2023-03-14T04:38:18;2.53;;;2.33;;
14984;SDS011;7588;62.368;25.902;2023-03-14T04:40:44;2.60;;;2.40;;
14984;SDS011;7588;62.368;25.902;2023-03-14T04:43:10;2.50;;;2.30;;
14984;SDS011;7588;62.368;25.902;2023-03-14T04:45:37;2.67;;;2.47;;
14984;SDS011;7588;62.368;25.902;2023-03-14T04:48:06;2.60;;;2.40;;
14984;SDS011;7588;62.368;25.902;2023-03-14T04:50:32;2.23;;;2.13;;
14984;SDS011;7588;62.368;25.902;2023-03-14T04:52:58;3.00;;;2.53;;
14984;SDS011;7588;62.368;25.902;2023-03-14T04:55:23;2.20;;;2.07;;
14984;SDS011;7588;62.368;25.902;2023-03-14T04:57:49;2.40;;;2.20;;
14984;SDS011;7588;62.368;25.902;2023-03-14T05:00:15;2.37;;;2.17;;
14984;SDS011;7588;62.368;25.902;2023-03-14T05:02:43;2.50;;;2.30;;
14984;SDS011;7588;62.368;25.902;2023-03-14T05:05:09;2.00;;;1.90;;
14984;SDS011;7588;62.368;25.902;2023-03-14T05:07:35;2.13;;;1.93;;
14984;SDS011;7588;62.368;25.902;2023-03-14T05:10:01;2.70;;;2.33;;
14984;SDS011;7588;62.368;25.902;2023-03-14T05:12:27;2.20;;;2.00;;
14984;SDS011;7588;62.368;25.902;2023-03-14T05:14:53;2.03;;;1.93;;
14984;SDS011;7588;62.368;25.902;2023-03-14T05:17:19;2.20;;;2.00;;
14984;SDS011;7588;62.368;25.902;2023-03-14T05:19:45;2.13;;;2.03;;
14984;SDS011;7588;62.368;25.902;2023-03-14T05:22:10;2.20;;;2.10;;
14984;SDS011;7588;62.368;25.902;2023-03-14T05:24:37;1.80;;;1.70;;
14984;SDS011;7588;62.368;25.902;2023-03-14T05:27:03;2.37;;;1.97;;
14984;SDS011;7588;62.368;25.902;2023-03-14T05:29:29;2.00;;;1.90;;
14984;SDS011;7588;62.368;25.902;2023-03-14T05:31:54;2.20;;;2.03;;
14984;SDS011;7588;62.368;25.902;2023-03-14T05:34:20;2.10;;;2.00;;
14984;SDS011;7588;62.368;25.902;2023-03-14T05:36:46;1.93;;;1.77;;
14984;SDS011;7588;62.368;25.902;2023-03-14T05:39:11;1.83;;;1.73;;
14984;SDS011;7588;62.368;25.902;2023-03-14T05:41:37;2.13;;;2.03;;
14984;SDS011;7588;62.368;25.902;2023-03-14T05:44:03;1.83;;;1.73;;
14984;SDS011;7588;62.368;25.902;2023-03-14T05:46:29;2.93;;;1.80;;
14984;SDS011;7588;62.368;25.902;2023-03-14T05:48:56;2.00;;;1.90;;
14984;SDS011;7588;62.368;25.902;2023-03-14T05:51:22;1.80;;;1.70;;
14984;SDS011;7588;62.368;25.902;2023-03-14T05:53:48;2.10;;;1.90;;
14984;SDS011;7588;62.368;25.902;2023-03-14T05:56:14;1.80;;;1.70;;
14984;SDS011;7588;62.368;25.902;2023-03-14T05:58:40;1.73;;;1.63;;
14984;SDS011;7588;62.368;25.902;2023-03-14T06:01:06;1.87;;;1.77;;
14984;SDS011;7588;62.368;25.902;2023-03-14T06:03:32;1.87;;;1.77;;
14984;SDS011;7588;62.368;25.902;2023-03-14T06:05:58;1.90;;;1.80;;
14984;SDS011;7588;62.368;25.902;2023-03-14T06:08:24;1.83;;;1.73;;
14984;SDS011;7588;62.368;25.902;2023-03-14T06:10:50;1.90;;;1.80;;
14984;SDS011;7588;62.368;25.902;2023-03-14T06:13:16;1.70;;;1.60;;
14984;SDS011;7588;62.368;25.902;2023-03-14T06:15:42;1.90;;;1.80;;
14984;SDS011;7588;62.368;25.902;2023-03-14T06:18:08;1.53;;;1.50;;
14984;SDS011;7588;62.368;25.902;2023-03-14T06:20:37;2.03;;;1.93;;
14984;SDS011;7588;62.368;25.902;2023-03-14T06:23:07;1.60;;;1.60;;
14984;SDS011;7588;62.368;25.902;2023-03-14T06:25:34;2.37;;;2.27;;
14984;SDS011;7588;62.368;25.902;2023-03-14T06:28:01;1.90;;;1.80;;
14984;SDS011;7588;62.368;25.902;2023-03-14T06:30:27;1.90;;;1.80;;
14984;SDS011;7588;62.368;25.902;2023-03-14T06:32:52;1.40;;;1.40;;
14984;SDS011;7588;62.368;25.902;2023-03-14T06:35:18;2.43;;;2.23;;
14984;SDS011;7588;62.368;25.902;2023-03-14T06:37:44;2.77;;;2.57;;
14984;SDS011;7588;62.368;25.902;2023-03-14T06:40:10;1.97;;;1.87;;
14984;SDS011;7588;62.368;25.902;2023-03-14T06:42:41;1.90;;;1.80;;
14984;SDS011;7588;62.368;25.902;2023-03-14T06:45:08;1.90;;;1.80;;
14984;SDS011;7588;62.368;25.902;2023-03-14T06:47:34;1.93;;;1.83;;
14984;SDS011;7588;62.368;25.902;2023-03-14T06:50:00;2.00;;;1.90;;
14984;SDS011;7588;62.368;25.902;2023-03-14T06:52:25;2.10;;;2.00;;
14984;SDS011;7588;62.368;25.902;2023-03-14T06:54:51;2.63;;;2.43;;
14984;SDS011;7588;62.368;25.902;2023-03-14T06:57:17;1.80;;;1.70;;
14984;SDS011;7588;62.368;25.902;2023-03-14T06:59:43;1.87;;;1.77;;
14984;SDS011;7588;62.368;25.902;2023-03-14T07:02:12;1.87;;;1.77;;
14984;SDS011;7588;62.368;25.902;2023-03-14T07:04:38;1.57;;;1.57;;
14984;SDS011;7588;62.368;25.902;2023-03-14T07:07:04;1.87;;;1.77;;
14984;SDS011;7588;62.368;25.902;2023-03-14T07:09:30;2.27;;;2.17;;
14984;SDS011;7588;62.368;25.902;2023-03-14T07:11:56;1.90;;;1.80;;
14984;SDS011;7588;62.368;25.902;2023-03-14T07:14:22;1.50;;;1.50;;
14984;SDS011;7588;62.368;25.902;2023-03-14T07:16:48;1.90;;;1.80;;
14984;SDS011;7588;62.368;25.902;2023-03-14T07:19:13;1.87;;;1.77;;
14984;SDS011;7588;62.368;25.902;2023-03-14T07:21:39;1.80;;;1.70;;
14984;SDS011;7588;62.368;25.902;2023-03-14T07:24:05;1.50;;;1.47;;
14984;SDS011;7588;62.368;25.902;2023-03-14T07:26:30;1.43;;;1.37;;
14984;SDS011;7588;62.368;25.902;2023-03-14T07:28:56;2.10;;;2.00;;
14984;SDS011;7588;62.368;25.902;2023-03-14T07:31:22;1.83;;;1.73;;
14984;SDS011;7588;62.368;25.902;2023-03-14T07:33:48;1.80;;;1.70;;
14984;SDS011;7588;62.368;25.902;2023-03-14T07:36:14;1.80;;;1.70;;
14984;SDS011;7588;62.368;25.902;2023-03-14T07:38:40;1.83;;;1.70;;
14984;SDS011;7588;62.368;25.902;2023-03-14T07:41:06;1.40;;;1.40;;
14984;SDS011;7588;62.368;25.902;2023-03-14T07:43:32;1.90;;;1.80;;
14984;SDS011;7588;62.368;25.902;2023-03-14T07:45:58;1.80;;;1.70;;
14984;SDS011;7588;62.368;25.902;2023-03-14T07:48:24;1.53;;;1.47;;
14984;SDS011;7588;62.368;25.902;2023-03-14T07:50:52;1.47;;;1.47;;
14984;SDS011;7588;62.368;25.902;2023-03-14T07:53:18;1.47;;;1.47;;
14984;SDS011;7588;62.368;25.902;2023-03-14T07:55:44;1.40;;;1.40;;
14984;SDS011;7588;62.368;25.902;2023-03-14T07:58:11;2.50;;;2.40;;
14984;SDS011;7588;62.368;25.902;2023-03-14T08:00:37;1.60;;;1.50;;
14984;SDS011;7588;62.368;25.902;2023-03-14T08:03:03;1.80;;;1.70;;
14984;SDS011;7588;62.368;25.902;2023-03-14T08:05:29;1.80;;;1.70;;
14984;SDS011;7588;62.368;25.902;2023-03-14T08:07:55;1.50;;;1.40;;
14984;SDS011;7588;62.368;25.902;2023-03-14T08:10:20;1.80;;;1.70;;
14984;SDS011;7588;62.368;25.902;2023-03-14T08:12:48;1.90;;;1.80;;
14984;SDS011;7588;62.368;25.902;2023-03-14T08:15:14;2.20;;;1.90;;
14984;SDS011;7588;62.368;25.902;2023-03-14T08:17:40;1.40;;;1.40;;
14984;SDS011;7588;62.368;25.902;2023-03-14T08:20:05;1.80;;;1.70;;
14984;SDS011;7588;62.368;25.902;2023-03-14T08:22:33;1.30;;;1.30;;
14984;SDS011;7588;62.368;25.902;2023-03-14T08:24:58;1.30;;;1.30;;
14984;SDS011;7588;62.368;25.902;2023-03-14T08:27:24;1.60;;;1.60;;
14984;SDS011;7588;62.368;25.902;2023-03-14T08:29:50;1.83;;;1.50;;
14984;SDS011;7588;62.368;25.902;2023-03-14T08:32:15;1.60;;;1.50;;
14984;SDS011;7588;62.368;25.902;2023-03-14T08:34:41;1.90;;;1.80;;
14984;SDS011;7588;62.368;25.902;2023-03-14T08:37:07;2.27;;;1.50;;
14984;SDS011;7588;62.368;25.902;2023-03-14T08:39:32;1.60;;;1.50;;
14984;SDS011;7588;62.368;25.902;2023-03-14T08:41:58;1.60;;;1.50;;
14984;SDS011;7588;62.368;25.902;2023-03-14T08:44:24;1.63;;;1.53;;
14984;SDS011;7588;62.368;25.902;2023-03-14T08:46:49;1.47;;;1.37;;
14984;SDS011;7588;62.368;25.902;2023-03-14T08:49:15;1.93;;;1.83;;
14984;SDS011;7588;62.368;25.902;2023-03-14T08:51:41;1.57;;;1.47;;
14984;SDS011;7588;62.368;25.902;2023-03-14T08:54:09;1.50;;;1.50;;
14984;SDS011;7588;62.368;25.902;2023-03-14T08:56:35;1.77;;;1.50;;
14984;SDS011;7588;62.368;25.902;2023-03-14T08:59:03;1.83;;;1.73;;
14984;SDS011;7588;62.368;25.902;2023-03-14T09:01:29;1.93;;;1.83;;
14984;SDS011;7588;62.368;25.902;2023-03-14T09:03:55;1.70;;;1.60;;
14984;SDS011;7588;62.368;25.902;2023-03-14T09:06:21;1.67;;;1.57;;
14984;SDS011;7588;62.368;25.902;2023-03-14T09:08:46;1.33;;;1.30;;
14984;SDS011;7588;62.368;25.902;2023-03-14T09:11:12;1.80;;;1.70;;
14984;SDS011;7588;62.368;25.902;2023-03-14T09:13:39;2.00;;;1.90;;
14984;SDS011;7588;62.368;25.902;2023-03-14T09:16:06;2.13;;;2.03;;
14984;SDS011;7588;62.368;25.902;2023-03-14T09:18:32;1.70;;;1.60;;
14984;SDS011;7588;62.368;25.902;2023-03-14T09:20:58;1.73;;;1.63;;
14984;SDS011;7588;62.368;25.902;2023-03-14T09:23:23;2.03;;;1.80;;
14984;SDS011;7588;62.368;25.902;2023-03-14T09:25:53;1.70;;;1.60;;
14984;SDS011;7588;62.368;25.902;2023-03-14T09:28:20;1.80;;;1.70;;
14984;SDS011;7588;62.368;25.902;2023-03-14T09:30:46;1.80;;;1.70;;
14984;SDS011;7588;62.368;25.902;2023-03-14T09:33:12;1.70;;;1.60;;
14984;SDS011;7588;62.368;25.902;2023-03-14T09:35:38;1.73;;;1.63;;
14984;SDS011;7588;62.368;25.902;2023-03-14T09:38:04;1.90;;;1.80;;
14984;SDS011;7588;62.368;25.902;2023-03-14T09:40:31;1.73;;;1.63;;
14984;SDS011;7588;62.368;25.902;2023-03-14T09:43:00;1.80;;;1.70;;
14984;SDS011;7588;62.368;25.902;2023-03-14T09:45:28;1.30;;;1.30;;
14984;SDS011;7588;62.368;25.902;2023-03-14T09:47:57;1.90;;;1.80;;
14984;SDS011;7588;62.368;25.902;2023-03-14T09:50:26;1.70;;;1.60;;
14984;SDS011;7588;62.368;25.902;2023-03-14T09:52:56;2.13;;;2.03;;
14984;SDS011;7588;62.368;25.902;2023-03-14T09:55:27;1.70;;;1.60;;
14984;SDS011;7588;62.368;25.902;2023-03-14T09:57:55;1.80;;;1.70;;
14984;SDS011;7588;62.368;25.902;2023-03-14T10:00:28;1.83;;;1.73;;
14984;SDS011;7588;62.368;25.902;2023-03-14T10:05:25;1.30;;;1.30;;
14984;SDS011;7588;62.368;25.902;2023-03-14T10:07:52;1.80;;;1.70;;
14984;SDS011;7588;62.368;25.902;2023-03-14T10:10:22;1.33;;;1.30;;
14984;SDS011;7588;62.368;25.902;2023-03-14T10:12:57;1.47;;;1.40;;
14984;SDS011;7588;62.368;25.902;2023-03-14T10:15:47;1.90;;;1.80;;
14984;SDS011;7588;62.368;25.902;2023-03-14T10:18:17;1.73;;;1.63;;
14984;SDS011;7588;62.368;25.902;2023-03-14T10:20:44;1.37;;;1.37;;
14984;SDS011;7588;62.368;25.902;2023-03-14T10:25:44;1.80;;;1.70;;
14984;SDS011;7588;62.368;25.902;2023-03-14T10:28:26;1.57;;;1.50;;
14984;SDS011;7588;62.368;25.902;2023-03-14T10:30:55;1.90;;;1.80;;
14984;SDS011;7588;62.368;25.902;2023-03-14T10:36:00;1.43;;;1.33;;
14984;SDS011;7588;62.368;25.902;2023-03-14T10:38:29;1.87;;;1.77;;
14984;SDS011;7588;62.368;25.902;2023-03-14T10:40:56;1.67;;;1.57;;
14984;SDS011;7588;62.368;25.902;2023-03-14T10:43:33;1.50;;;1.40;;
14984;SDS011;7588;62.368;25.902;2023-03-14T10:46:04;1.00;;;1.00;;
14984;SDS011;7588;62.368;25.902;2023-03-14T10:48:38;1.47;;;1.40;;
14984;SDS011;7588;62.368;25.902;2023-03-14T10:53:45;1.53;;;1.43;;
14984;SDS011;7588;62.368;25.902;2023-03-14T10:56:20;1.70;;;1.60;;
14984;SDS011;7588;62.368;25.902;2023-03-14T10:58:47;2.13;;;2.03;;
14984;SDS011;7588;62.368;25.902;2023-03-14T11:15:46;1.40;;;1.40;;
14984;SDS011;7588;62.368;25.902;2023-03-14T11:27:04;3.43;;;3.13;;
14984;SDS011;7588;62.368;25.902;2023-03-14T11:32:50;1.20;;;1.20;;
14984;SDS011;7588;62.368;25.902;2023-03-14T11:37:52;1.30;;;1.20;;
14984;SDS011;7588;62.368;25.902;2023-03-14T11:40:23;1.20;;;1.20;;
14984;SDS011;7588;62.368;25.902;2023-03-14T11:43:00;1.40;;;1.40;;
14984;SDS011;7588;62.368;25.902;2023-03-14T11:45:41;2.20;;;1.30;;
14984;SDS011;7588;62.368;25.902;2023-03-14T11:50:46;1.23;;;1.23;;
14984;SDS011;7588;62.368;25.902;2023-03-14T11:53:22;1.10;;;1.10;;
14984;SDS011;7588;62.368;25.902;2023-03-14T11:55:58;1.67;;;1.57;;
14984;SDS011;7588;62.368;25.902;2023-03-14T11:58:27;1.20;;;1.20;;
14984;SDS011;7588;62.368;25.902;2023-03-14T12:00:56;1.57;;;1.40;;
14984;SDS011;7588;62.368;25.902;2023-03-14T12:08:58;1.20;;;1.20;;
14984;SDS011;7588;62.368;25.902;2023-03-14T12:13:57;1.17;;;1.17;;
14984;SDS011;7588;62.368;25.902;2023-03-14T12:18:49;1.20;;;1.20;;
14984;SDS011;7588;62.368;25.902;2023-03-14T12:21:16;1.33;;;1.33;;
14984;SDS011;7588;62.368;25.902;2023-03-14T12:42:12;1.53;;;1.20;;
14984;SDS011;7588;62.368;25.902;2023-03-14T12:44:46;1.30;;;1.30;;
14984;SDS011;7588;62.368;25.902;2023-03-14T12:49:44;1.43;;;1.33;;
14984;SDS011;7588;62.368;25.902;2023-03-14T13:00:40;1.17;;;1.17;;
14984;SDS011;7588;62.368;25.902;2023-03-14T13:03:15;1.17;;;1.17;;
14984;SDS011;7588;62.368;25.902;2023-03-14T13:06:01;1.30;;;1.30;;
14984;SDS011;7588;62.368;25.902;2023-03-14T13:11:20;1.10;;;1.10;;
14984;SDS011;7588;62.368;25.902;2023-03-14T13:13:50;1.30;;;1.20;;
14984;SDS011;7588;62.368;25.902;2023-03-14T13:16:21;1.37;;;1.37;;
14984;SDS011;7588;62.368;25.902;2023-03-14T13:19:00;1.27;;;1.27;;
14984;SDS011;7588;62.368;25.902;2023-03-14T13:21:29;1.50;;;1.50;;
14984;SDS011;7588;62.368;25.902;2023-03-14T13:24:01;1.27;;;1.27;;
14984;SDS011;7588;62.368;25.902;2023-03-14T13:26:34;1.10;;;1.10;;
14984;SDS011;7588;62.368;25.902;2023-03-14T13:29:08;1.30;;;1.30;;
14984;SDS011;7588;62.368;25.902;2023-03-14T13:31:43;1.60;;;1.50;;
14984;SDS011;7588;62.368;25.902;2023-03-14T13:34:10;1.50;;;1.50;;
14984;SDS011;7588;62.368;25.902;2023-03-14T13:36:37;1.17;;;1.17;;
14984;SDS011;7588;62.368;25.902;2023-03-14T13:39:03;1.43;;;1.40;;
14984;SDS011;7588;62.368;25.902;2023-03-14T13:41:37;1.80;;;1.70;;
14984;SDS011;7588;62.368;25.902;2023-03-14T13:44:05;1.50;;;1.50;;
14984;SDS011;7588;62.368;25.902;2023-03-14T13:46:49;1.73;;;1.60;;
14984;SDS011;7588;62.368;25.902;2023-03-14T13:49:21;2.17;;;1.80;;
14984;SDS011;7588;62.368;25.902;2023-03-14T13:51:49;1.87;;;1.77;;
14984;SDS011;7588;62.368;25.902;2023-03-14T13:54:15;1.70;;;1.60;;
14984;SDS011;7588;62.368;25.902;2023-03-14T13:56:45;1.93;;;1.83;;
14984;SDS011;7588;62.368;25.902;2023-03-14T13:59:21;2.10;;;1.90;;
14984;SDS011;7588;62.368;25.902;2023-03-14T14:01:48;1.90;;;1.80;;
14984;SDS011;7588;62.368;25.902;2023-03-14T14:04:16;1.47;;;1.43;;
14984;SDS011;7588;62.368;25.902;2023-03-14T14:06:54;1.90;;;1.80;;
14984;SDS011;7588;62.368;25.902;2023-03-14T14:09:35;1.60;;;1.50;;
14984;SDS011;7588;62.368;25.902;2023-03-14T14:14:39;1.70;;;1.60;;
14984;SDS011;7588;62.368;25.902;2023-03-14T14:17:17;1.80;;;1.70;;
14984;SDS011;7588;62.368;25.902;2023-03-14T14:19:46;1.70;;;1.60;;
14984;SDS011;7588;62.368;25.902;2023-03-14T14:22:13;1.50;;;1.40;;
14984;SDS011;7588;62.368;25.902;2023-03-14T14:24:39;1.80;;;1.70;;
14984;SDS011;7588;62.368;25.902;2023-03-14T14:27:12;1.30;;;1.30;;
14984;SDS011;7588;62.368;25.902;2023-03-14T14:29:40;2.00;;;1.80;;
14984;SDS011;7588;62.368;25.902;2023-03-14T14:34:42;1.63;;;1.53;;
14984;SDS011;7588;62.368;25.902;2023-03-14T14:37:18;1.50;;;1.50;;
14984;SDS011;7588;62.368;25.902;2023-03-14T14:39:46;1.70;;;1.60;;
14984;SDS011;7588;62.368;25.902;2023-03-14T14:42:16;1.50;;;1.40;;
14984;SDS011;7588;62.368;25.902;2023-03-14T14:44:47;1.40;;;1.40;;
14984;SDS011;7588;62.368;25.902;2023-03-14T14:47:16;1.80;;;1.70;;
14984;SDS011;7588;62.368;25.902;2023-03-14T14:49:44;1.60;;;1.50;;
14984;SDS011;7588;62.368;25.902;2023-03-14T14:52:16;1.80;;;1.70;;
14984;SDS011;7588;62.368;25.902;2023-03-14T14:57:20;2.10;;;2.00;;
14984;SDS011;7588;62.368;25.902;2023-03-14T14:59:54;1.60;;;1.50;;
14984;SDS011;7588;62.368;25.902;2023-03-14T15:02:32;1.30;;;1.30;;
14984;SDS011;7588;62.368;25.902;2023-03-14T15:05:15;1.57;;;1.57;;
14984;SDS011;7588;62.368;25.902;2023-03-14T15:07:43;1.17;;;1.17;;
14984;SDS011;7588;62.368;25.902;2023-03-14T15:10:10;1.70;;;1.70;;
14984;SDS011;7588;62.368;25.902;2023-03-14T15:12:46;1.27;;;1.20;;
14984;SDS011;7588;62.368;25.902;2023-03-14T15:15:13;1.50;;;1.50;;
14984;SDS011;7588;62.368;25.902;2023-03-14T15:17:39;1.50;;;1.40;;
14984;SDS011;7588;62.368;25.902;2023-03-14T15:20:06;1.63;;;1.53;;
14984;SDS011;7588;62.368;25.902;2023-03-14T15:22:35;1.23;;;1.23;;
14984;SDS011;7588;62.368;25.902;2023-03-14T15:25:01;1.50;;;1.50;;
14984;SDS011;7588;62.368;25.902;2023-03-14T15:27:27;1.10;;;1.10;;
14984;SDS011;7588;62.368;25.902;2023-03-14T15:29:55;1.33;;;1.33;;
14984;SDS011;7588;62.368;25.902;2023-03-14T15:32:21;1.57;;;1.50;;
14984;SDS011;7588;62.368;25.902;2023-03-14T15:34:47;1.50;;;1.50;;
14984;SDS011;7588;62.368;25.902;2023-03-14T15:37:14;1.60;;;1.50;;
14984;SDS011;7588;62.368;25.902;2023-03-14T15:39:44;1.77;;;1.73;;
14984;SDS011;7588;62.368;25.902;2023-03-14T15:42:10;1.60;;;1.50;;
14984;SDS011;7588;62.368;25.902;2023-03-14T15:44:36;2.10;;;1.37;;
14984;SDS011;7588;62.368;25.902;2023-03-14T15:47:04;1.50;;;1.50;;
14984;SDS011;7588;62.368;25.902;2023-03-14T15:49:30;1.40;;;1.30;;
14984;SDS011;7588;62.368;25.902;2023-03-14T15:51:56;1.50;;;1.27;;
14984;SDS011;7588;62.368;25.902;2023-03-14T15:54:22;1.70;;;1.60;;
14984;SDS011;7588;62.368;25.902;2023-03-14T15:56:48;1.90;;;1.80;;
14984;SDS011;7588;62.368;25.902;2023-03-14T15:59:14;1.83;;;1.73;;
14984;SDS011;7588;62.368;25.902;2023-03-14T16:01:39;2.03;;;1.93;;
14984;SDS011;7588;62.368;25.902;2023-03-14T16:04:05;1.47;;;1.40;;
14984;SDS011;7588;62.368;25.902;2023-03-14T16:06:31;1.50;;;1.40;;
14984;SDS011;7588;62.368;25.902;2023-03-14T16:08:57;1.83;;;1.50;;
14984;SDS011;7588;62.368;25.902;2023-03-14T16:11:23;1.30;;;1.30;;
14984;SDS011;7588;62.368;25.902;2023-03-14T16:13:48;1.60;;;1.50;;
14984;SDS011;7588;62.368;25.902;2023-03-14T16:16:15;1.23;;;1.23;;
14984;SDS011;7588;62.368;25.902;2023-03-14T16:18:40;1.70;;;1.60;;
14984;SDS011;7588;62.368;25.902;2023-03-14T16:21:07;1.70;;;1.60;;
14984;SDS011;7588;62.368;25.902;2023-03-14T16:23:36;1.57;;;1.40;;
14984;SDS011;7588;62.368;25.902;2023-03-14T16:26:08;1.33;;;1.33;;
14984;SDS011;7588;62.368;25.902;2023-03-14T16:28:36;1.57;;;1.47;;
14984;SDS011;7588;62.368;25.902;2023-03-14T16:31:03;1.60;;;1.50;;
14984;SDS011;7588;62.368;25.902;2023-03-14T16:33:31;1.70;;;1.60;;
14984;SDS011;7588;62.368;25.902;2023-03-14T16:35:58;1.70;;;1.60;;